createdAt,value
2023-05-14T00:02:16.684Z,100.00
2023-05-14T00:04:43.832Z,100.00
2023-05-14T00:07:10.936Z,100.00
2023-05-14T00:09:38.325Z,100.00
2023-05-14T00:12:05.939Z,100.00
2023-05-14T00:14:32.937Z,100.00
2023-05-14T00:16:59.969Z,100.00
2023-05-14T00:19:27.855Z,100.00
2023-05-14T00:21:54.977Z,100.00
2023-05-14T00:24:22.062Z,100.00
2023-05-14T00:26:49.147Z,100.00
2023-05-14T00:29:16.248Z,100.00
2023-05-14T00:31:43.502Z,100.00
2023-05-14T00:34:10.895Z,100.00
2023-05-14T00:36:38.043Z,100.00
2023-05-14T00:39:05.131Z,100.00
2023-05-14T00:41:32.202Z,100.00
2023-05-14T00:43:59.728Z,100.00
2023-05-14T00:46:27.599Z,100.00
2023-05-14T00:48:55.021Z,100.00
2023-05-14T00:51:22.555Z,100.00
2023-05-14T00:53:51.066Z,100.00
2023-05-14T00:56:19.264Z,100.00
2023-05-14T00:58:46.397Z,100.00
2023-05-14T01:01:15.447Z,100.00
2023-05-14T01:03:43.598Z,100.00
2023-05-14T01:06:38.290Z,100.00
2023-05-14T01:09:15.093Z,100.00
2023-05-14T01:12:00.082Z,100.00
2023-05-14T01:14:56.642Z,100.00
2023-05-14T01:17:29.622Z,100.00
2023-05-14T01:19:57.312Z,100.00
2023-05-14T01:22:24.410Z,100.00
2023-05-14T01:24:51.715Z,100.00
2023-05-14T01:27:27.536Z,100.00
2023-05-14T01:30:14.162Z,100.00
2023-05-14T01:32:44.843Z,100.00
2023-05-14T01:35:13.192Z,100.00
2023-05-14T01:37:42.121Z,100.00
2023-05-14T01:40:11.616Z,100.00
2023-05-14T01:42:39.047Z,100.00
2023-05-14T01:45:06.865Z,100.00
2023-05-14T01:47:33.957Z,100.00
2023-05-14T01:50:01.088Z,100.00
2023-05-14T01:52:28.311Z,100.00
2023-05-14T01:54:55.641Z,100.00
2023-05-14T01:57:22.927Z,100.00
2023-05-14T01:59:50.372Z,100.00
2023-05-14T02:02:17.458Z,100.00
2023-05-14T02:04:44.587Z,100.00
2023-05-14T02:07:11.592Z,100.00
2023-05-14T02:09:38.852Z,100.00
2023-05-14T02:12:07.145Z,100.00
2023-05-14T02:14:34.188Z,100.00
2023-05-14T02:17:01.292Z,100.00
2023-05-14T02:19:28.328Z,100.00
2023-05-14T02:21:55.549Z,100.00
2023-05-14T02:24:22.829Z,100.00
2023-05-14T02:26:49.992Z,100.00
2023-05-14T02:29:17.280Z,100.00
2023-05-14T02:31:44.468Z,100.00
2023-05-14T02:34:11.498Z,100.00
2023-05-14T02:36:38.550Z,100.00
2023-05-14T02:39:05.675Z,100.00
2023-05-14T02:41:32.829Z,100.00
2023-05-14T02:44:00.035Z,100.00
2023-05-14T02:46:27.273Z,100.00
2023-05-14T02:48:55.437Z,100.00
2023-05-14T02:51:23.087Z,100.00
2023-05-14T02:53:50.203Z,100.00
2023-05-14T02:56:17.200Z,100.00
2023-05-14T02:58:44.262Z,100.00
2023-05-14T03:01:11.435Z,100.00
2023-05-14T03:03:39.030Z,100.00
2023-05-14T03:06:06.862Z,100.00
2023-05-14T03:08:33.917Z,100.00
2023-05-14T03:11:01.045Z,100.00
2023-05-14T03:13:28.126Z,100.00
2023-05-14T03:15:55.317Z,100.00
2023-05-14T03:18:22.722Z,100.00
2023-05-14T03:20:49.752Z,100.00
2023-05-14T03:23:16.881Z,100.00
2023-05-14T03:25:44.027Z,100.00
2023-05-14T03:28:11.092Z,100.00
2023-05-14T03:30:38.264Z,100.00
2023-05-14T03:33:05.464Z,100.00
2023-05-14T03:35:32.583Z,100.00
2023-05-14T03:38:00.005Z,100.00
2023-05-14T03:40:27.221Z,100.00
2023-05-14T03:42:54.325Z,100.00
2023-05-14T03:45:21.392Z,100.00
2023-05-14T03:47:48.508Z,100.00
2023-05-14T03:50:15.743Z,100.00
2023-05-14T03:52:43.742Z,100.00
2023-05-14T03:55:10.898Z,100.00
2023-05-14T03:57:38.067Z,100.00
2023-05-14T04:00:05.613Z,100.00
2023-05-14T04:02:43.931Z,100.00
2023-05-14T04:05:11.269Z,100.00
2023-05-14T04:07:38.442Z,100.00
2023-05-14T04:10:06.508Z,100.00
2023-05-14T04:12:35.528Z,100.00
2023-05-14T04:15:03.066Z,100.00
2023-05-14T04:17:30.122Z,100.00
2023-05-14T04:19:57.207Z,100.00
2023-05-14T04:22:24.627Z,100.00
2023-05-14T04:24:52.348Z,100.00
2023-05-14T04:27:22.776Z,100.00
2023-05-14T04:29:51.024Z,100.00
2023-05-14T04:32:18.433Z,100.00
2023-05-14T04:34:47.020Z,100.00
2023-05-14T04:37:14.174Z,100.00
2023-05-14T04:39:41.268Z,100.00
2023-05-14T04:42:08.580Z,100.00
2023-05-14T04:44:36.919Z,100.00
2023-05-14T04:47:04.702Z,100.00
2023-05-14T04:49:32.125Z,100.00
2023-05-14T04:51:59.516Z,100.00
2023-05-14T04:54:26.663Z,100.00
2023-05-14T04:56:55.977Z,100.00
2023-05-14T04:59:23.059Z,100.00
2023-05-14T05:01:50.190Z,100.00
2023-05-14T05:04:17.304Z,100.00
2023-05-14T05:06:44.312Z,100.00
2023-05-14T05:09:11.383Z,100.00
2023-05-14T05:11:39.110Z,100.00
2023-05-14T05:14:06.170Z,100.00
2023-05-14T05:16:33.305Z,100.00
2023-05-14T05:19:00.453Z,100.00
2023-05-14T05:21:27.739Z,100.00
2023-05-14T05:23:54.752Z,100.00
2023-05-14T05:26:22.510Z,100.00
2023-05-14T05:28:49.540Z,100.00
2023-05-14T05:31:19.568Z,100.00
2023-05-14T05:33:48.043Z,100.00
2023-05-14T05:36:15.454Z,100.00
2023-05-14T05:38:42.545Z,100.00
2023-05-14T05:41:09.541Z,100.00
2023-05-14T05:43:36.808Z,100.00
2023-05-14T05:46:03.858Z,100.00
2023-05-14T05:48:30.927Z,100.00
2023-05-14T05:50:58.112Z,100.00
2023-05-14T05:53:25.154Z,100.00
2023-05-14T05:55:52.211Z,100.00
2023-05-14T05:58:19.914Z,100.00
2023-05-14T06:00:47.328Z,100.00
2023-05-14T06:03:14.770Z,100.00
2023-05-14T06:05:42.053Z,100.00
2023-05-14T06:08:09.944Z,100.00
2023-05-14T06:10:37.746Z,100.00
2023-05-14T06:13:04.880Z,100.00
2023-05-14T06:15:32.031Z,100.00
2023-05-14T06:17:59.112Z,100.00
2023-05-14T06:20:26.394Z,100.00
2023-05-14T06:22:53.647Z,100.00
2023-05-14T06:25:20.713Z,99.99
2023-05-14T06:27:47.755Z,99.43
2023-05-14T06:30:15.550Z,97.85
2023-05-14T06:32:42.660Z,96.39
2023-05-14T06:35:09.867Z,94.75
2023-05-14T06:37:36.865Z,92.57
2023-05-14T06:40:04.295Z,90.62
2023-05-14T06:42:31.307Z,89.34
2023-05-14T06:44:58.729Z,87.07
2023-05-14T06:47:25.889Z,83.62
2023-05-14T06:49:52.929Z,81.97
2023-05-14T06:52:19.970Z,80.65
2023-05-14T06:54:46.968Z,78.93
2023-05-14T06:57:13.976Z,76.99
2023-05-14T06:59:41.015Z,76.20
2023-05-14T07:02:08.053Z,75.29
2023-05-14T07:04:35.190Z,73.95
2023-05-14T07:07:02.279Z,72.09
2023-05-14T07:09:29.349Z,70.43
2023-05-14T07:11:56.381Z,69.37
2023-05-14T07:14:23.483Z,67.89
2023-05-14T07:16:50.537Z,66.96
2023-05-14T07:19:17.672Z,66.08
2023-05-14T07:21:44.735Z,65.33
2023-05-14T07:24:11.748Z,63.96
2023-05-14T07:26:39.407Z,62.98
2023-05-14T07:29:06.934Z,62.16
2023-05-14T07:31:34.233Z,60.35
2023-05-14T07:34:01.292Z,59.64
2023-05-14T07:36:28.391Z,58.84
2023-05-14T07:39:00.276Z,57.91
2023-05-14T07:41:27.330Z,56.46
2023-05-14T07:43:54.369Z,55.22
2023-05-14T07:46:21.430Z,53.09
2023-05-14T07:48:48.425Z,52.72
2023-05-14T07:51:15.465Z,51.81
2023-05-14T07:53:42.597Z,51.42
2023-05-14T07:56:09.650Z,49.99
2023-05-14T07:58:36.667Z,48.77
2023-05-14T08:01:07.310Z,47.95
2023-05-14T08:03:35.325Z,47.40
2023-05-14T08:06:03.080Z,46.62
2023-05-14T08:31:10.184Z,40.95
2023-05-14T08:33:37.298Z,39.74
2023-05-14T08:36:04.544Z,39.50
2023-05-14T08:38:31.613Z,38.98
2023-05-14T08:40:59.598Z,38.63
2023-05-14T08:43:30.973Z,38.15
2023-05-14T08:46:01.356Z,37.92
2023-05-14T08:48:32.694Z,38.02
2023-05-14T08:51:01.024Z,38.18
2023-05-14T08:53:28.096Z,37.98
2023-05-14T08:55:55.154Z,37.69
2023-05-14T08:58:22.264Z,37.56
2023-05-14T09:00:49.405Z,37.07
2023-05-14T09:03:17.533Z,36.44
2023-05-14T09:05:46.518Z,36.22
2023-05-14T09:08:13.859Z,35.92
2023-05-14T09:10:40.900Z,35.73
2023-05-14T09:13:10.276Z,35.46
2023-05-14T09:15:38.691Z,35.29
2023-05-14T09:18:06.797Z,35.60
2023-05-14T09:20:34.603Z,35.91
2023-05-14T09:23:02.179Z,36.21
2023-05-14T09:25:32.549Z,36.16
2023-05-14T09:27:59.766Z,36.09
2023-05-14T09:30:27.580Z,35.80
2023-05-14T09:32:55.374Z,35.52
2023-05-14T09:35:24.817Z,35.44
2023-05-14T09:37:55.870Z,35.29
2023-05-14T09:40:24.668Z,35.26
2023-05-14T09:42:52.256Z,35.22
2023-05-14T09:45:19.424Z,35.19
2023-05-14T09:47:46.656Z,35.33
2023-05-14T09:50:13.984Z,35.31
2023-05-14T09:52:41.187Z,35.47
2023-05-14T09:55:08.693Z,35.65
2023-05-14T09:57:36.045Z,35.92
2023-05-14T10:00:04.059Z,36.41
2023-05-14T10:02:41.505Z,36.43
2023-05-14T10:05:09.801Z,36.09
2023-05-14T10:07:46.719Z,36.02
2023-05-14T10:10:19.887Z,35.85
2023-05-14T10:12:53.138Z,35.55
2023-05-14T10:15:33.872Z,35.58
2023-05-14T10:18:08.271Z,35.28
2023-05-14T10:20:38.354Z,35.35
2023-05-14T10:23:08.087Z,35.46
2023-05-14T10:25:37.112Z,35.49
2023-05-14T10:28:06.112Z,35.37
2023-05-14T10:30:33.221Z,35.40
2023-05-14T10:33:18.881Z,35.31
2023-05-14T10:35:56.807Z,35.40
2023-05-14T10:38:27.900Z,35.54
2023-05-14T10:41:02.334Z,35.48
2023-05-14T10:43:31.204Z,35.68
2023-05-14T10:46:00.072Z,35.54
2023-05-14T10:48:27.321Z,35.54
2023-05-14T10:50:55.595Z,35.34
2023-05-14T10:53:36.076Z,35.33
2023-05-14T10:56:21.761Z,35.29
2023-05-14T10:58:50.241Z,34.88
2023-05-14T11:01:17.299Z,34.36
2023-05-14T11:03:46.514Z,34.08
2023-05-14T11:06:15.743Z,33.80
2023-05-14T11:08:44.115Z,33.61
2023-05-14T11:11:11.323Z,33.38
2023-05-14T11:13:38.645Z,33.20
2023-05-14T11:18:41.109Z,33.46
2023-05-14T11:21:08.174Z,34.22
2023-05-14T11:23:35.270Z,35.00
2023-05-14T11:26:02.456Z,35.86
2023-05-14T11:28:30.168Z,36.75
2023-05-14T11:30:57.327Z,37.54
2023-05-14T11:33:24.378Z,38.36
2023-05-14T11:35:52.192Z,39.27
2023-05-14T11:38:21.377Z,40.32
2023-05-14T11:40:55.866Z,41.21
2023-05-14T11:43:29.587Z,42.25
2023-05-14T11:45:57.139Z,43.45
2023-05-14T11:48:24.385Z,44.25
2023-05-14T11:50:52.933Z,45.17
2023-05-14T11:53:28.160Z,46.21
2023-05-14T11:55:58.025Z,47.35
2023-05-14T11:58:26.088Z,48.56
2023-05-14T12:00:55.785Z,49.82
2023-05-14T12:03:26.502Z,51.09
2023-05-14T12:06:02.185Z,52.11
2023-05-14T12:08:31.556Z,53.40
2023-05-14T12:11:00.565Z,54.76
2023-05-14T12:13:29.776Z,56.23
2023-05-14T12:15:58.744Z,57.00
2023-05-14T12:18:28.414Z,58.37
2023-05-14T12:20:55.786Z,58.62
2023-05-14T12:23:33.104Z,59.19
2023-05-14T12:26:08.910Z,59.99
2023-05-14T12:28:43.496Z,60.45
2023-05-14T12:31:10.896Z,61.13
2023-05-14T12:33:37.920Z,61.14
2023-05-14T12:36:20.625Z,61.49
2023-05-14T12:38:50.949Z,62.24
2023-05-14T12:41:18.607Z,62.69
2023-05-14T12:43:48.298Z,63.25
2023-05-14T12:46:15.693Z,63.38
2023-05-14T12:48:42.757Z,63.64
2023-05-14T12:51:09.753Z,64.87
2023-05-14T12:53:36.779Z,65.39
2023-05-14T12:56:04.006Z,65.93
2023-05-14T12:58:31.036Z,66.35
2023-05-14T13:00:58.944Z,66.60
2023-05-14T13:03:26.627Z,66.53
2023-05-14T13:05:54.540Z,66.18
2023-05-14T13:08:25.086Z,65.71
2023-05-14T13:10:53.382Z,65.14
2023-05-14T13:13:20.837Z,64.95
2023-05-14T13:15:48.049Z,64.35
2023-05-14T13:18:16.074Z,64.23
2023-05-14T13:23:19.102Z,64.12
2023-05-14T13:25:47.472Z,63.45
2023-05-14T13:28:16.325Z,63.29
2023-05-14T13:31:05.221Z,63.15
2023-05-14T13:33:36.822Z,63.32
2023-05-14T13:36:04.364Z,63.08
2023-05-14T13:38:34.850Z,62.65
2023-05-14T13:41:02.831Z,62.05
2023-05-14T13:43:34.808Z,61.94
2023-05-14T13:46:03.405Z,61.85
2023-05-14T13:48:31.251Z,61.65
2023-05-14T13:50:58.573Z,61.57
2023-05-14T13:53:26.267Z,61.34
2023-05-14T13:55:56.672Z,60.84
2023-05-14T13:58:25.428Z,60.53
2023-05-14T14:00:53.080Z,60.37
2023-05-14T14:03:20.332Z,60.41
2023-05-14T14:05:47.963Z,60.59
2023-05-14T14:08:23.485Z,60.90
2023-05-14T14:10:52.813Z,61.07
2023-05-14T14:13:21.353Z,61.16
2023-05-14T14:15:48.728Z,61.33
2023-05-14T14:18:15.882Z,60.60
2023-05-14T14:20:42.960Z,60.18
2023-05-14T14:23:10.019Z,59.85
2023-05-14T14:25:37.087Z,59.49
2023-05-14T14:28:04.148Z,59.08
2023-05-14T14:30:32.533Z,59.02
2023-05-14T14:33:01.428Z,58.70
2023-05-14T14:35:28.860Z,58.47
2023-05-14T14:37:56.048Z,58.38
2023-05-14T14:40:24.148Z,58.52
2023-05-14T14:42:51.242Z,58.85
2023-05-14T14:45:18.587Z,59.07
2023-05-14T14:47:46.777Z,59.11
2023-05-14T14:50:13.957Z,59.37
2023-05-14T14:52:45.589Z,59.22
2023-05-14T14:55:13.324Z,59.09
2023-05-14T14:57:40.507Z,59.17
2023-05-14T15:00:07.986Z,59.15
2023-05-14T15:02:35.559Z,59.14
2023-05-14T15:05:02.708Z,59.05
2023-05-14T15:07:33.165Z,58.97
2023-05-14T15:10:00.359Z,58.82
2023-05-14T15:12:27.434Z,58.71
2023-05-14T15:14:54.466Z,58.65
2023-05-14T15:17:21.994Z,58.80
2023-05-14T15:19:49.091Z,58.98
2023-05-14T15:22:16.168Z,59.10
2023-05-14T15:24:43.244Z,59.18
2023-05-14T15:27:10.486Z,59.31
2023-05-14T15:29:37.507Z,59.55
2023-05-14T15:32:05.182Z,59.81
2023-05-14T15:34:32.181Z,59.89
2023-05-14T15:36:59.198Z,59.94
2023-05-14T15:39:27.272Z,60.08
2023-05-14T15:41:55.474Z,60.18
2023-05-14T15:44:22.589Z,60.29
2023-05-14T15:46:49.783Z,60.34
2023-05-14T15:49:16.875Z,60.43
2023-05-14T15:51:44.275Z,60.62
2023-05-14T15:54:11.380Z,60.85
2023-05-14T15:56:38.743Z,60.88
2023-05-14T15:59:06.004Z,60.94
2023-05-14T16:01:33.116Z,60.97
2023-05-14T16:04:00.204Z,61.03
2023-05-14T16:06:27.498Z,60.94
2023-05-14T16:08:54.701Z,61.17
2023-05-14T16:11:22.214Z,61.70
2023-05-14T16:13:49.259Z,62.23
2023-05-14T16:16:16.461Z,62.81
2023-05-14T16:18:44.277Z,63.22
2023-05-14T16:21:11.585Z,63.85
2023-05-14T16:23:39.082Z,64.12
2023-05-14T16:26:06.686Z,64.50
2023-05-14T16:28:34.147Z,64.88
2023-05-14T16:31:03.466Z,65.47
2023-05-14T16:33:31.022Z,66.01
2023-05-14T16:35:58.216Z,66.40
2023-05-14T16:38:25.479Z,67.00
2023-05-14T16:40:52.776Z,67.65
2023-05-14T16:43:19.821Z,68.50
2023-05-14T16:45:47.368Z,69.15
2023-05-14T16:48:14.884Z,69.88
2023-05-14T16:50:42.052Z,70.79
2023-05-14T16:53:09.236Z,71.23
2023-05-14T16:55:36.524Z,71.78
2023-05-14T16:58:03.558Z,72.38
2023-05-14T17:00:30.876Z,73.23
2023-05-14T17:02:58.217Z,74.18
2023-05-14T17:05:25.762Z,75.29
2023-05-14T17:07:53.046Z,76.12
2023-05-14T17:10:20.324Z,76.68
2023-05-14T17:12:47.351Z,77.13
2023-05-14T17:15:14.646Z,77.87
2023-05-14T17:17:42.169Z,78.78
2023-05-14T17:20:10.021Z,79.56
2023-05-14T17:22:37.428Z,80.42
2023-05-14T17:25:05.892Z,81.46
2023-05-14T17:27:33.708Z,82.58
2023-05-14T17:30:03.813Z,83.58
2023-05-14T17:32:31.452Z,84.45
2023-05-14T17:34:58.972Z,85.54
2023-05-14T17:37:26.686Z,86.57
2023-05-14T17:39:53.854Z,87.85
2023-05-14T17:42:21.148Z,88.65
2023-05-14T17:44:48.169Z,89.98
2023-05-14T17:47:15.406Z,91.17
2023-05-14T17:49:42.479Z,91.90
2023-05-14T17:52:09.957Z,92.52
2023-05-14T17:54:37.240Z,93.24
2023-05-14T17:57:04.385Z,93.79
2023-05-14T17:59:31.519Z,95.09
2023-05-14T18:01:58.892Z,96.00
2023-05-14T18:04:25.922Z,96.38
2023-05-14T18:06:53.076Z,96.35
2023-05-14T18:09:20.400Z,96.34
2023-05-14T18:11:47.780Z,96.52
2023-05-14T18:14:14.791Z,97.47
2023-05-14T18:16:42.284Z,98.50
2023-05-14T18:19:09.467Z,99.62
2023-05-14T18:21:36.555Z,100.00
2023-05-14T18:24:03.989Z,100.00
2023-05-14T18:26:33.574Z,100.00
2023-05-14T18:29:01.384Z,100.00
2023-05-14T18:31:28.594Z,100.00
2023-05-14T18:33:55.879Z,100.00
2023-05-14T18:36:23.404Z,100.00
2023-05-14T18:38:50.416Z,100.00
2023-05-14T18:41:17.700Z,100.00
2023-05-14T18:43:45.014Z,100.00
2023-05-14T18:46:12.616Z,100.00
2023-05-14T18:48:40.536Z,100.00
2023-05-14T18:51:08.163Z,100.00
2023-05-14T18:53:35.224Z,100.00
2023-05-14T18:56:02.628Z,100.00
2023-05-14T18:58:29.760Z,100.00
2023-05-14T19:00:59.389Z,100.00
2023-05-14T19:03:27.035Z,100.00
2023-05-14T19:05:54.525Z,100.00
2023-05-14T19:08:21.705Z,100.00
2023-05-14T19:10:48.872Z,100.00
2023-05-14T19:13:19.101Z,100.00
2023-05-14T19:15:46.478Z,100.00
2023-05-14T19:18:14.126Z,100.00
2023-05-14T19:20:42.569Z,100.00
2023-05-14T19:23:09.633Z,100.00
2023-05-14T19:25:36.717Z,100.00
2023-05-14T19:28:05.067Z,100.00
2023-05-14T19:30:32.166Z,100.00
2023-05-14T19:32:59.672Z,100.00
2023-05-14T19:35:27.409Z,100.00
2023-05-14T19:37:54.619Z,100.00
2023-05-14T19:40:22.176Z,100.00
2023-05-14T19:42:49.321Z,100.00
2023-05-14T19:45:16.591Z,100.00
2023-05-14T19:47:43.894Z,100.00
2023-05-14T19:50:11.765Z,100.00
2023-05-14T19:52:38.960Z,100.00
2023-05-14T19:55:06.570Z,100.00
2023-05-14T19:57:33.907Z,100.00
2023-05-14T20:00:01.297Z,100.00
2023-05-14T20:02:29.388Z,100.00
2023-05-14T20:04:56.909Z,100.00
2023-05-14T20:07:26.158Z,100.00
2023-05-14T20:09:53.298Z,100.00
2023-05-14T20:12:20.643Z,100.00
2023-05-14T20:14:47.672Z,100.00
2023-05-14T20:17:15.132Z,100.00
2023-05-14T20:19:42.831Z,100.00
2023-05-14T20:22:09.945Z,100.00
2023-05-14T20:24:37.107Z,100.00
2023-05-14T20:27:04.920Z,100.00
2023-05-14T20:29:32.210Z,100.00
2023-05-14T20:31:59.779Z,100.00
2023-05-14T20:34:26.911Z,100.00
2023-05-14T20:36:54.423Z,100.00
2023-05-14T20:39:21.680Z,100.00
2023-05-14T20:41:48.723Z,100.00
2023-05-14T20:44:16.423Z,100.00
2023-05-14T20:46:44.685Z,100.00
2023-05-14T20:49:11.861Z,100.00
2023-05-14T20:51:39.457Z,100.00
2023-05-14T20:54:06.679Z,100.00
2023-05-14T20:56:34.076Z,100.00
2023-05-14T20:59:01.448Z,100.00
2023-05-14T21:01:31.048Z,100.00
2023-05-14T21:03:58.239Z,100.00
2023-05-14T21:06:25.933Z,100.00
2023-05-14T21:08:53.185Z,100.00
2023-05-14T21:11:21.762Z,100.00
2023-05-14T21:13:49.420Z,100.00
2023-05-14T21:16:17.158Z,100.00
2023-05-14T21:18:44.319Z,100.00
2023-05-14T21:21:11.658Z,100.00
2023-05-14T21:23:39.289Z,100.00
2023-05-14T21:26:06.506Z,100.00
2023-05-14T21:28:33.788Z,100.00
2023-05-14T21:31:00.928Z,100.00
2023-05-14T21:33:28.382Z,100.00
2023-05-14T21:35:55.834Z,100.00
2023-05-14T21:38:22.965Z,100.00
2023-05-14T21:40:50.237Z,100.00
2023-05-14T21:43:17.454Z,100.00
2023-05-14T21:45:47.214Z,100.00
2023-05-14T21:48:14.723Z,100.00
2023-05-14T21:50:42.021Z,100.00
2023-05-14T21:53:09.284Z,100.00
2023-05-14T21:55:36.568Z,100.00
2023-05-14T21:58:04.030Z,100.00
2023-05-14T22:00:32.048Z,100.00
2023-05-14T22:03:00.339Z,100.00
2023-05-14T22:05:28.083Z,100.00
2023-05-14T22:07:55.309Z,100.00
2023-05-14T22:10:22.994Z,100.00
2023-05-14T22:12:50.123Z,100.00
2023-05-14T22:15:17.147Z,100.00
2023-05-14T22:17:44.293Z,100.00
2023-05-14T22:20:11.456Z,100.00
2023-05-14T22:22:38.970Z,100.00
2023-05-14T22:25:08.339Z,100.00
2023-05-14T22:27:35.590Z,100.00
2023-05-14T22:30:03.147Z,100.00
2023-05-14T22:32:30.295Z,100.00
2023-05-14T22:34:57.419Z,100.00
2023-05-14T22:37:24.643Z,100.00
2023-05-14T22:39:51.878Z,100.00
2023-05-14T22:42:20.480Z,100.00
2023-05-14T22:44:47.593Z,100.00
2023-05-14T22:47:15.126Z,100.00
2023-05-14T22:49:43.243Z,100.00
2023-05-14T22:52:10.397Z,100.00
2023-05-14T22:54:37.438Z,100.00
2023-05-14T22:57:05.117Z,100.00
2023-05-14T22:59:32.202Z,100.00
2023-05-14T23:01:59.241Z,100.00
2023-05-14T23:04:26.597Z,100.00
2023-05-14T23:06:53.834Z,100.00
2023-05-14T23:09:20.922Z,100.00
2023-05-14T23:11:48.187Z,100.00
2023-05-14T23:14:15.287Z,100.00
2023-05-14T23:16:42.577Z,100.00
2023-05-14T23:19:10.192Z,100.00
2023-05-14T23:21:37.745Z,100.00
2023-05-14T23:24:05.229Z,100.00
2023-05-14T23:26:32.609Z,100.00
2023-05-14T23:28:59.764Z,100.00
2023-05-14T23:31:27.211Z,100.00
2023-05-14T23:33:54.459Z,100.00
2023-05-14T23:36:21.560Z,100.00
2023-05-14T23:38:48.770Z,100.00
2023-05-14T23:41:15.760Z,100.00
2023-05-14T23:43:42.980Z,100.00
2023-05-14T23:46:10.650Z,100.00
2023-05-14T23:48:37.902Z,100.00
2023-05-14T23:51:04.936Z,100.00
2023-05-14T23:53:32.006Z,100.00
2023-05-14T23:55:59.137Z,100.00
2023-05-14T23:58:26.767Z,100.00
